Time;durP1;ratioP1;P1;durP2;ratioP2;P2;SDS_P1;SDS_P2;PMS_P1;PMS_P2;Temp;Humidity;BMP_temperature;BMP_pressure;BME280_temperature;BME280_humidity;BME280_pressure;Samples;Min_cycle;Max_cycle;Signal;HPM_P1;HPM_P2
2023/05/30 00:01:01;;;;;;;;;;;;;;;29.16;36.42;94232.00;4757769;30;8681;-59
2023/05/30 00:03:31;;;;;;;;;;;;;;;29.16;36.75;94232.00;4721930;30;7599;-60
2023/05/30 00:05:57;;;;;;;;;;;;;;;29.17;36.37;94229.97;4733341;30;7384;-59
2023/05/30 00:08:32;;;;;;;;;;;;;;;29.16;36.35;94225.69;4762794;29;7801;-59
2023/05/30 00:11:00;;;;;;;;;;;;;;;29.16;36.22;94228.44;4783269;29;7121;-59
2023/05/30 00:13:28;;;;;;;;;;;;;;;29.18;36.48;94228.69;4780822;30;7177;-59
2023/05/30 00:16:12;;;;;;;;;;;;;;;29.19;36.31;94225.38;4781631;29;7460;-59
2023/05/30 00:18:53;;;;;;;;;;;;;;;29.16;35.96;94218.16;4884339;29;7271;-59
2023/05/30 00:21:35;;;;;;;;;;;;;;;29.18;36.13;94218.34;4934660;28;8241;-59
2023/05/30 00:24:05;;;;;;;;;;;;;;;29.19;36.38;94221.88;4946848;28;8899;-60
2023/05/30 00:26:37;;;;;;;;;;;;;;;29.17;36.78;94216.13;4942304;29;7264;-59
2023/05/30 00:29:06;;;;;;;;;;;;;;;29.16;36.43;94214.59;4953266;28;7190;-59
2023/05/30 00:31:44;;;;;;;;;;;;;;;29.16;36.31;94215.38;4989427;28;9053;-60
2023/05/30 00:34:57;;;;;;;;;;;;;;;29.15;36.45;94218.66;4979031;28;7668;-59
2023/05/30 00:43:41;;;;;;;;;;;;;;;;;;;;;
2023/05/30 00:46:30;;;;;;;;;;;;;;;;;;;;;
2023/05/30 00:49:02;;;;;;;;;;;;;;;29.12;36.38;94217.72;4941918;28;7127;-59
2023/05/30 00:51:59;;;;;;;;;;;;;;;29.11;36.78;94216.22;4930666;28;7271;-59
2023/05/30 00:55:02;;;;;;;;;;;;;;;29.12;36.52;94214.19;4915476;29;9072;-59
2023/05/30 00:57:34;;;;;;;;;;;;;;;29.10;36.15;94217.50;4805618;29;7283;-59
2023/05/30 01:00:03;;;;;;;;;;;;;;;29.08;36.17;94206.97;4796851;29;7086;-59
2023/05/30 01:02:41;;;;;;;;;;;;;;;29.08;36.46;94220.81;4804837;29;7898;-60
2023/05/30 01:05:37;;;;;;;;;;;;;;;29.09;36.59;94218.78;4808321;29;7343;-59
2023/05/30 01:08:03;;;;;;;;;;;;;;;29.07;36.26;94216.56;4798013;29;7568;-59
2023/05/30 01:10:34;;;;;;;;;;;;;;;29.08;36.89;94217.28;4795790;29;8186;-59
2023/05/30 01:13:41;;;;;;;;;;;;;;;29.09;36.60;94216.75;4784780;29;7764;-59
2023/05/30 01:16:40;;;;;;;;;;;;;;;29.09;36.33;94216.00;5061929;28;6997;-59
2023/05/30 01:19:45;;;;;;;;;;;;;;;29.07;36.76;94213.78;5030180;28;7117;-59
2023/05/30 01:22:29;;;;;;;;;;;;;;;29.07;36.52;94216.56;5019854;28;7254;-59
2023/05/30 01:25:22;;;;;;;;;;;;;;;29.07;36.37;94222.09;5035513;28;9128;-59
2023/05/30 01:28:05;;;;;;;;;;;;;;;29.07;36.45;94218.59;5048645;28;7168;-60
2023/05/30 01:30:44;;;;;;;;;;;;;;;29.06;36.83;94217.84;5042713;28;6976;-59
2023/05/30 01:33:16;;;;;;;;;;;;;;;29.05;36.28;94216.34;5039199;28;8691;-59
2023/05/30 01:36:02;;;;;;;;;;;;;;;29.06;35.86;94217.06;5049854;28;9464;-59
2023/05/30 01:38:40;;;;;;;;;;;;;;;29.05;36.63;94221.16;5058039;28;7037;-59
2023/05/30 01:41:19;;;;;;;;;;;;;;;29.06;36.91;94219.84;5040642;28;9378;-59
2023/05/30 01:44:21;;;;;;;;;;;;;;;29.05;36.20;94219.13;5044536;28;7135;-59
2023/05/30 01:47:05;;;;;;;;;;;;;;;29.05;36.99;94216.34;5023953;28;7236;-59
2023/05/30 01:49:57;;;;;;;;;;;;;;;29.05;36.50;94210.06;5006807;28;8996;-60
2023/05/30 01:53:17;;;;;;;;;;;;;;;29.05;37.00;94221.91;5019755;28;8549;-59
2023/05/30 01:55:57;;;;;;;;;;;;;;;29.05;36.82;94232.22;4939483;29;9489;-59
2023/05/30 01:58:25;;;;;;;;;;;;;;;29.05;36.73;94230.22;4946155;29;7254;-59
2023/05/30 02:00:55;;;;;;;;;;;;;;;29.03;36.50;94229.25;4948020;29;7066;-59
2023/05/30 02:03:52;;;;;;;;;;;;;;;29.02;36.94;94222.97;4948223;29;7104;-59
2023/05/30 02:06:31;;;;;;;;;;;;;;;29.02;36.53;94228.50;4891933;29;6995;-59
2023/05/30 02:08:58;;;;;;;;;;;;;;;29.02;36.41;94231.28;4887895;29;7061;-59
2023/05/30 02:11:24;;;;;;;;;;;;;;;29.01;36.64;94235.31;4894096;29;9056;-59
2023/05/30 02:13:52;;;;;;;;;;;;;;;29.01;37.06;94231.81;4893117;29;9025;-59
2023/05/30 02:16:31;;;;;;;;;;;;;;;28.98;36.16;94221.81;4904515;29;6987;-59
2023/05/30 02:18:58;;;;;;;;;;;;;;;28.99;36.31;94229.56;4891664;29;7193;-59
2023/05/30 02:21:24;;;;;;;;;;;;;;;28.99;36.78;94229.56;4901466;29;9200;-59
2023/05/30 02:23:50;;;;;;;;;;;;;;;28.99;37.21;94237.88;4934718;28;7164;-59
2023/05/30 02:26:18;;;;;;;;;;;;;;;28.96;36.95;94241.72;4940012;28;7230;-59
2023/05/30 02:28:44;;;;;;;;;;;;;;;28.96;36.79;94225.13;4920989;28;7034;-59
2023/05/30 02:31:11;;;;;;;;;;;;;;;28.96;36.86;94230.66;4950073;28;9415;-59
2023/05/30 02:33:38;;;;;;;;;;;;;;;28.94;36.51;94229.69;4957596;28;7223;-59
2023/05/30 02:36:10;;;;;;;;;;;;;;;28.94;37.00;94229.69;4951470;28;7183;-59
2023/05/30 02:38:41;;;;;;;;;;;;;;;28.92;36.79;94230.25;4978095;28;9279;-59
2023/05/30 02:41:37;;;;;;;;;;;;;;;28.94;37.22;94232.47;4967786;28;8708;-60
2023/05/30 02:44:06;;;;;;;;;;;;;;;28.91;36.37;94234.28;4973503;28;7260;-59
2023/05/30 02:47:03;;;;;;;;;;;;;;;28.93;36.81;94240.03;4964422;28;7250;-59
2023/05/30 02:49:31;;;;;;;;;;;;;;;28.91;36.25;94247.38;4896591;29;7246;-59
2023/05/30 02:52:06;;;;;;;;;;;;;;;28.91;36.84;94250.16;4896378;29;7059;-59
2023/05/30 02:54:34;;;;;;;;;;;;;;;28.91;36.24;94250.16;4896873;29;9047;-59
2023/05/30 02:57:02;;;;;;;;;;;;;;;28.88;36.45;94257.50;4897397;29;9021;-59
2023/05/30 02:59:30;;;;;;;;;;;;;;;28.91;36.67;94258.44;4894393;29;7046;-59
2023/05/30 03:02:31;;;;;;;;;;;;;;;28.90;36.25;94260.50;4902714;29;9322;-59
2023/05/30 03:05:07;;;;;;;;;;;;;;;28.89;36.40;94267.31;4896921;29;7541;-60
2023/05/30 03:07:35;;;;;;;;;;;;;;;28.89;36.41;94263.78;4903279;29;7121;-59
2023/05/30 03:10:30;;;;;;;;;;;;;;;28.87;36.88;94267.09;4896890;29;7173;-60
2023/05/30 03:13:05;;;;;;;;;;;;;;;28.89;36.93;94266.56;4884286;29;8895;-59
2023/05/30 03:15:42;;;;;;;;;;;;;;;28.87;36.90;94277.41;4870840;29;7411;-59
2023/05/30 03:18:23;;;;;;;;;;;;;;;28.86;36.60;94276.66;4857767;29;9230;-59
2023/05/30 03:21:03;;;;;;;;;;;;;;;28.86;36.75;94276.66;4873858;29;7354;-59
2023/05/30 03:23:30;;;;;;;;;;;;;;;28.83;36.35;94277.00;4887476;29;8741;-59
2023/05/30 03:26:06;;;;;;;;;;;;;;;28.85;36.61;94279.97;4909194;28;7534;-59
2023/05/30 03:28:46;;;;;;;;;;;;;;;28.84;36.81;94275.75;4929973;29;8683;-60
2023/05/30 03:31:22;;;;;;;;;;;;;;;28.83;36.36;94277.75;4933434;29;7395;-59
2023/05/30 03:33:47;;;;;;;;;;;;;;;28.83;36.85;94277.75;4935582;28;7164;-59
2023/05/30 03:36:33;;;;;;;;;;;;;;;28.82;36.18;94281.78;4926687;29;8942;-59
2023/05/30 03:39:12;;;;;;;;;;;;;;;28.82;36.48;94287.31;4946532;28;8307;-59
2023/05/30 03:41:48;;;;;;;;;;;;;;;28.80;37.07;94278.06;4937636;28;7275;-59
2023/05/30 03:44:24;;;;;;;;;;;;;;;28.81;36.27;94287.88;4937702;28;7513;-59
2023/05/30 03:47:00;;;;;;;;;;;;;;;28.80;36.25;94287.13;4940143;28;7283;-59
2023/05/30 03:49:27;;;;;;;;;;;;;;;28.81;36.82;94290.63;5009071;28;7048;-59
2023/05/30 03:52:01;;;;;;;;;;;;;;;28.82;36.55;94283.81;5010055;28;7206;-59
2023/05/30 03:54:40;;;;;;;;;;;;;;;28.81;36.79;94285.09;5012605;28;7218;-59
2023/05/30 03:57:10;;;;;;;;;;;;;;;28.79;36.75;94288.41;5014053;28;9520;-59
2023/05/30 03:59:45;;;;;;;;;;;;;;;28.80;36.76;94286.38;5000776;28;7275;-59
2023/05/30 04:02:18;;;;;;;;;;;;;;;28.79;37.11;94293.94;5014347;28;8822;-59
2023/05/30 04:04:50;;;;;;;;;;;;;;;28.78;36.50;94286.91;5006823;28;7343;-59
2023/05/30 04:07:16;;;;;;;;;;;;;;;28.78;36.67;94286.91;5009285;28;9147;-59
2023/05/30 04:09:42;;;;;;;;;;;;;;;28.77;37.03;94290.97;5008322;28;8911;-59
2023/05/30 04:12:19;;;;;;;;;;;;;;;28.77;36.62;94299.28;5011496;28;8464;-59
2023/05/30 04:14:45;;;;;;;;;;;;;;;28.77;37.28;94295.75;5017882;28;7027;-59
2023/05/30 04:17:18;;;;;;;;;;;;;;;28.75;36.85;94296.28;5029229;28;7032;-60
2023/05/30 04:19:46;;;;;;;;;;;;;;;28.76;36.91;94306.06;5027953;28;7083;-60
2023/05/30 04:22:32;;;;;;;;;;;;;;;28.77;36.82;94304.06;5016395;28;7068;-60
2023/05/30 04:25:02;;;;;;;;;;;;;;;28.77;36.69;94301.28;5040680;28;7050;-60
2023/05/30 04:27:31;;;;;;;;;;;;;;;28.76;36.61;94311.63;5012084;28;7333;-59
2023/05/30 04:29:58;;;;;;;;;;;;;;;28.73;36.85;94301.59;5022979;28;7010;-60
2023/05/30 04:32:25;;;;;;;;;;;;;;;28.73;36.72;94309.91;5018593;28;7207;-59
2023/05/30 04:35:21;;;;;;;;;;;;;;;28.73;36.67;94309.91;5026455;28;7050;-59
2023/05/30 04:37:50;;;;;;;;;;;;;;;28.76;37.11;94311.63;4936518;28;8984;-59
2023/05/30 04:40:17;;;;;;;;;;;;;;;28.75;36.77;94306.63;4922043;29;7152;-60
2023/05/30 04:42:43;;;;;;;;;;;;;;;28.76;37.06;94314.38;4935398;28;9265;-59
2023/05/30 04:45:14;;;;;;;;;;;;;;;28.74;36.45;94313.41;4928412;28;8691;-59
2023/05/30 04:47:46;;;;;;;;;;;;;;;28.74;36.76;94311.41;4926862;29;7807;-59
2023/05/30 04:50:14;;;;;;;;;;;;;;;28.76;37.19;94317.16;4915211;29;7905;-59
2023/05/30 04:52:45;;;;;;;;;;;;;;;28.78;36.65;94320.13;4906531;29;7286;-59
2023/05/30 04:55:13;;;;;;;;;;;;;;;28.75;36.62;94318.41;4918640;28;7265;-59
2023/05/30 04:58:00;;;;;;;;;;;;;;;28.77;37.27;94326.97;4936334;28;8335;-59
2023/05/30 05:01:04;;;;;;;;;;;;;;;28.76;36.79;94327.47;4930953;29;7277;-59
2023/05/30 05:03:51;;;;;;;;;;;;;;;28.74;37.31;94328.00;4923477;29;8087;-59
2023/05/30 05:06:18;;;;;;;;;;;;;;;28.74;37.84;94336.31;4940311;28;7046;-59
2023/05/30 05:08:56;;;;;;;;;;;;;;;28.74;38.20;94324.50;4914133;29;8983;-59
2023/05/30 05:11:22;;;;;;;;;;;;;;;28.74;37.42;94322.47;4925713;29;9632;-59
2023/05/30 05:13:50;;;;;;;;;;;;;;;28.71;37.36;94320.75;4943518;28;7027;-60
2023/05/30 05:16:20;;;;;;;;;;;;;;;28.69;37.29;94320.56;5022156;28;7064;-59
2023/05/30 05:18:46;;;;;;;;;;;;;;;28.68;37.78;94321.09;5008878;28;7071;-60
2023/05/30 05:21:15;;;;;;;;;;;;;;;28.68;37.54;94330.16;5033622;28;8854;-60
2023/05/30 05:23:51;;;;;;;;;;;;;;;28.69;37.94;94334.41;5020761;28;7270;-60
2023/05/30 05:26:27;;;;;;;;;;;;;;;28.69;38.16;94339.19;5019570;28;7378;-59
2023/05/30 05:28:58;;;;;;;;;;;;;;;28.67;37.72;94338.97;5009997;28;9394;-59
2023/05/30 05:31:27;;;;;;;;;;;;;;;28.67;37.99;94339.72;5002268;28;9058;-60
2023/05/30 05:33:57;;;;;;;;;;;;;;;28.66;37.71;94335.47;5023192;28;7186;-60
2023/05/30 05:36:23;;;;;;;;;;;;;;;28.65;37.30;94327.69;5008079;28;8787;-59
2023/05/30 05:38:50;;;;;;;;;;;;;;;28.62;37.96;94339.84;5012596;28;7042;-59
2023/05/30 05:41:17;;;;;;;;;;;;;;;28.55;37.79;94335.66;5027425;28;8953;-59
2023/05/30 05:43:55;;;;;;;;;;;;;;;28.59;37.47;94346.44;5013711;28;7165;-59
2023/05/30 05:46:24;;;;;;;;;;;;;;;28.59;37.83;94338.88;5030510;28;7024;-59
2023/05/30 05:48:50;;;;;;;;;;;;;;;28.60;37.89;94348.66;5014747;28;8650;-60
2023/05/30 05:51:19;;;;;;;;;;;;;;;28.61;38.12;94343.88;5007968;28;7704;-60
2023/05/30 05:54:06;;;;;;;;;;;;;;;28.65;37.76;94347.06;5011041;28;7120;-59
2023/05/30 05:56:38;;;;;;;;;;;;;;;28.65;38.16;94352.59;5006289;28;7298;-59
2023/05/30 05:59:15;;;;;;;;;;;;;;;28.66;38.17;94351.34;5022138;28;9474;-59
2023/05/30 06:02:00;;;;;;;;;;;;;;;28.68;38.08;94360.59;5008828;28;9044;-59
2023/05/30 06:04:33;;;;;;;;;;;;;;;28.68;37.54;94360.59;5041911;28;7265;-59
2023/05/30 06:06:59;;;;;;;;;;;;;;;28.65;37.96;94358.88;5013401;28;7326;-59
2023/05/30 06:09:30;;;;;;;;;;;;;;;28.60;37.67;94365.25;5035751;28;7250;-59
2023/05/30 06:12:00;;;;;;;;;;;;;;;28.61;38.03;94366.75;5041039;28;7163;-59
2023/05/30 06:14:26;;;;;;;;;;;;;;;28.60;37.84;94370.06;5026567;28;7281;-59
2023/05/30 06:16:53;;;;;;;;;;;;;;;28.66;37.92;94368.69;5010826;28;7002;-59
2023/05/30 06:19:19;;;;;;;;;;;;;;;28.67;37.99;94375.69;5005161;28;7590;-59
2023/05/30 06:21:45;;;;;;;;;;;;;;;28.67;37.40;94375.69;5023180;28;9169;-60
2023/05/30 06:24:11;;;;;;;;;;;;;;;28.69;38.23;94375.91;5029311;28;8726;-59
2023/05/30 06:26:45;;;;;;;;;;;;;;;28.72;38.00;94376.88;5011891;28;8973;-59
2023/05/30 06:29:11;;;;;;;;;;;;;;;28.71;37.47;94378.88;5040329;28;9103;-59
2023/05/30 06:31:37;;;;;;;;;;;;;;;28.71;37.69;94369.88;5038878;28;8217;-59
2023/05/30 06:34:03;;;;;;;;;;;;;;;28.70;38.14;94374.66;5007977;28;7283;-59
2023/05/30 06:36:31;;;;;;;;;;;;;;;28.74;38.34;94379.84;5010834;28;7956;-59
2023/05/30 06:38:57;;;;;;;;;;;;;;;28.72;37.83;94377.63;5028061;28;7261;-59
2023/05/30 06:41:23;;;;;;;;;;;;;;;28.72;38.23;94385.94;5010965;28;7510;-59
2023/05/30 06:43:55;;;;;;;;;;;;;;;28.71;38.00;94375.41;5009906;28;9069;-59
2023/05/30 06:46:21;;;;;;;;;;;;;;;28.71;37.67;94383.69;5024637;28;7678;-59
2023/05/30 06:49:08;;;;;;;;;;;;;;;28.73;38.06;94395.72;5024873;28;7190;-59
2023/05/30 06:52:08;;;;;;;;;;;;;;;28.73;38.19;94395.72;5014839;28;7430;-59
2023/05/30 06:54:46;;;;;;;;;;;;;;;28.72;38.01;94399.78;5010657;28;8945;-59
2023/05/30 06:57:53;;;;;;;;;;;;;;;28.73;37.73;94406.06;5015597;28;7006;-59
2023/05/30 07:00:22;;;;;;;;;;;;;;;28.71;38.14;94401.03;4961619;28;7055;-59
2023/05/30 07:02:50;;;;;;;;;;;;;;;28.68;37.84;94393.81;4979339;28;7034;-59
2023/05/30 07:05:25;;;;;;;;;;;;;;;28.70;38.58;94399.56;4959456;28;7025;-59
2023/05/30 07:08:04;;;;;;;;;;;;;;;28.73;38.72;94406.78;4955682;28;9363;-59
2023/05/30 07:10:39;;;;;;;;;;;;;;;28.72;38.05;94399.78;4997143;28;9418;-59
2023/05/30 07:13:19;;;;;;;;;;;;;;;28.72;38.37;94399.03;4959228;28;7020;-60
2023/05/30 07:16:33;;;;;;;;;;;;;;;28.71;38.69;94397.53;4997377;28;7496;-59
2023/05/30 07:19:06;;;;;;;;;;;;;;;28.72;38.53;94397.00;4953176;28;7250;-59
2023/05/30 07:22:02;;;;;;;;;;;;;;;28.73;38.88;94401.25;4953188;28;8181;-59
2023/05/30 07:25:01;;;;;;;;;;;;;;;28.75;38.45;94400.72;4935580;28;6979;-59
2023/05/30 07:27:26;;;;;;;;;;;;;;;28.73;38.43;94398.47;4934854;28;9230;-61
2023/05/30 07:29:53;;;;;;;;;;;;;;;28.74;38.22;94402.75;4950729;28;8583;-59
2023/05/30 07:32:29;;;;;;;;;;;;;;;28.74;38.33;94391.69;4932746;28;8815;-59
2023/05/30 07:35:08;;;;;;;;;;;;;;;28.68;38.57;94391.03;4954708;28;7264;-59
2023/05/30 07:37:39;;;;;;;;;;;;;;;28.69;39.02;94389.75;4943297;28;8878;-59
2023/05/30 07:40:17;;;;;;;;;;;;;;;28.75;39.19;94395.19;4950275;28;9187;-59
2023/05/30 07:42:58;;;;;;;;;;;;;;;28.76;39.00;94397.44;4945629;28;9020;-59
2023/05/30 07:45:26;;;;;;;;;;;;;;;28.75;39.08;94395.19;4943795;28;9054;-59
2023/05/30 07:48:05;;;;;;;;;;;;;;;28.77;38.36;94401.69;4953385;28;9422;-59
2023/05/30 07:50:41;;;;;;;;;;;;;;;28.74;38.91;94386.16;4971886;28;9402;-60
2023/05/30 07:53:17;;;;;;;;;;;;;;;28.80;38.59;94397.09;4956551;28;9017;-60
2023/05/30 07:55:55;;;;;;;;;;;;;;;28.80;38.94;94386.78;4967212;28;7938;-61
2023/05/30 07:58:34;;;;;;;;;;;;;;;28.77;39.09;94387.84;4976139;28;9056;-60
2023/05/30 08:01:02;;;;;;;;;;;;;;;28.77;39.12;94396.16;5015642;28;7049;-60
2023/05/30 08:03:37;;;;;;;;;;;;;;;28.78;38.94;94396.88;5012013;28;7265;-60
2023/05/30 08:06:07;;;;;;;;;;;;;;;28.75;39.36;94392.44;5011642;28;7269;-60
2023/05/30 08:08:58;;;;;;;;;;;;;;;28.76;38.85;94391.13;5017106;28;9244;-61
2023/05/30 08:11:40;;;;;;;;;;;;;;;28.74;38.89;94391.69;5025767;28;8728;-60
2023/05/30 08:14:06;;;;;;;;;;;;;;;28.76;39.24;94391.13;5010754;28;7062;-59
2023/05/30 08:16:44;;;;;;;;;;;;;;;28.77;39.02;94390.63;5012279;28;9183;-60
2023/05/30 08:19:12;;;;;;;;;;;;;;;28.78;39.05;94392.09;5011581;28;7060;-60
2023/05/30 08:21:38;;;;;;;;;;;;;;;28.77;38.94;94390.63;5029871;28;8866;-60
2023/05/30 08:24:17;;;;;;;;;;;;;;;28.75;39.29;94389.66;5011080;28;7928;-60
2023/05/30 08:27:00;;;;;;;;;;;;;;;28.77;39.36;94384.34;5010630;28;7448;-60
2023/05/30 08:29:27;;;;;;;;;;;;;;;28.80;39.18;94395.09;5024145;28;7295;-60
2023/05/30 08:31:56;;;;;;;;;;;;;;;28.79;39.00;94390.84;5031546;28;7006;-60
2023/05/30 08:34:24;;;;;;;;;;;;;;;28.79;39.64;94393.59;5023549;28;9010;-60
2023/05/30 08:36:55;;;;;;;;;;;;;;;28.80;39.36;94389.53;5026393;28;9030;-60
2023/05/30 08:39:23;;;;;;;;;;;;;;;28.80;39.09;94384.00;5007396;28;7108;-60
2023/05/30 08:41:52;;;;;;;;;;;;;;;28.80;39.22;94384.00;5021971;28;9210;-59
2023/05/30 08:44:30;;;;;;;;;;;;;;;28.84;38.71;94386.47;5008623;28;9204;-60
2023/05/30 08:47:26;;;;;;;;;;;;;;;28.88;39.24;94384.84;5013128;28;7261;-60
2023/05/30 08:49:55;;;;;;;;;;;;;;;28.90;39.04;94385.09;4988917;28;7580;-59
2023/05/30 08:52:28;;;;;;;;;;;;;;;28.91;38.56;94389.34;4965913;28;9145;-60
2023/05/30 08:55:21;;;;;;;;;;;;;;;28.92;39.41;94390.84;4982397;28;7064;-60
2023/05/30 08:57:59;;;;;;;;;;;;;;;28.93;38.94;94378.47;4977260;28;7074;-61
2023/05/30 09:00:27;;;;;;;;;;;;;;;28.95;38.76;94377.94;4965756;28;7421;-60
2023/05/30 09:03:05;;;;;;;;;;;;;;;28.96;38.80;94385.72;4970553;28;7015;-60
2023/05/30 09:05:40;;;;;;;;;;;;;;;28.95;39.01;94377.94;4964264;28;7260;-60
2023/05/30 09:08:25;;;;;;;;;;;;;;;28.92;39.26;94374.22;4969348;28;7024;-60
2023/05/30 09:11:16;;;;;;;;;;;;;;;28.92;38.81;94379.75;4963735;28;7319;-60
2023/05/30 09:13:56;;;;;;;;;;;;;;;28.93;38.68;94375.69;4952332;28;7386;-60
2023/05/30 09:16:24;;;;;;;;;;;;;;;28.91;38.74;94374.75;4965955;28;9029;-60
2023/05/30 09:18:52;;;;;;;;;;;;;;;28.92;39.32;94374.22;4962283;28;9269;-60
2023/05/30 09:21:19;;;;;;;;;;;;;;;28.94;38.82;94382.75;4951984;28;9075;-60
2023/05/30 09:23:48;;;;;;;;;;;;;;;28.94;39.34;94382.75;4952777;28;9108;-60
2023/05/30 09:26:20;;;;;;;;;;;;;;;28.94;38.94;94368.91;4982396;28;7411;-60
2023/05/30 09:28:50;;;;;;;;;;;;;;;28.96;38.91;94377.41;4996232;28;9714;-60
2023/05/30 09:31:21;;;;;;;;;;;;;;;28.93;39.17;94372.94;5010365;28;7220;-60
2023/05/30 09:33:52;;;;;;;;;;;;;;;28.96;39.15;94379.44;5004400;28;7023;-60
2023/05/30 09:36:23;;;;;;;;;;;;;;;28.95;38.84;94381.44;5027977;28;7219;-60
2023/05/30 09:38:54;;;;;;;;;;;;;;;28.95;38.53;94373.13;5007128;28;7016;-60
2023/05/30 09:41:26;;;;;;;;;;;;;;;28.95;38.54;94375.91;5014994;28;7065;-60
2023/05/30 09:43:54;;;;;;;;;;;;;;;28.94;38.57;94377.19;5023969;28;7001;-60
2023/05/30 09:46:26;;;;;;;;;;;;;;;28.94;37.88;94377.19;5021405;28;7018;-60
2023/05/30 09:48:53;;;;;;;;;;;;;;;28.92;37.88;94376.25;5009162;28;8213;-60
2023/05/30 09:51:22;;;;;;;;;;;;;;;28.93;38.70;94372.19;5015781;28;8163;-60
2023/05/30 09:54:03;;;;;;;;;;;;;;;28.94;38.89;94376.44;5005815;28;6999;-60
2023/05/30 09:56:37;;;;;;;;;;;;;;;28.92;38.73;94379.00;5011188;28;7831;-60
2023/05/30 09:59:09;;;;;;;;;;;;;;;28.91;37.45;94383.03;5009892;28;9009;-60
2023/05/30 10:02:12;;;;;;;;;;;;;;;28.92;38.03;94371.44;5043975;28;7362;-61
2023/05/30 10:04:41;;;;;;;;;;;;;;;28.93;37.22;94375.69;4974384;28;9290;-60
2023/05/30 10:07:07;;;;;;;;;;;;;;;28.98;36.95;94380.38;4990450;28;9280;-61
2023/05/30 10:09:48;;;;;;;;;;;;;;;29.01;37.75;94378.59;4967798;28;7040;-60
2023/05/30 10:12:18;;;;;;;;;;;;;;;28.98;37.44;94377.63;4975651;28;9374;-61
2023/05/30 10:14:44;;;;;;;;;;;;;;;28.99;36.94;94372.84;4946786;28;8691;-60
2023/05/30 10:17:18;;;;;;;;;;;;;;;28.98;37.22;94371.34;4968404;28;7119;-60
2023/05/30 10:20:23;;;;;;;;;;;;;;;28.97;37.05;94365.03;4955985;28;7266;-60
2023/05/30 10:22:54;;;;;;;;;;;;;;;28.97;36.85;94361.56;4956315;28;9719;-60
2023/05/30 10:25:27;;;;;;;;;;;;;;;28.98;36.93;94358.25;4944999;28;7265;-60
2023/05/30 10:28:09;;;;;;;;;;;;;;;28.95;36.76;94351.00;4958884;28;8729;-61
2023/05/30 10:30:39;;;;;;;;;;;;;;;28.98;36.77;94349.19;4974399;28;7417;-61
2023/05/30 10:33:13;;;;;;;;;;;;;;;29.03;36.50;94353.88;4951036;28;9388;-60
2023/05/30 10:35:42;;;;;;;;;;;;;;;29.02;36.76;94350.34;4973794;28;8742;-60
2023/05/30 10:38:29;;;;;;;;;;;;;;;29.03;36.51;94349.09;4959900;28;7403;-60
2023/05/30 10:41:24;;;;;;;;;;;;;;;29.06;36.55;94350.00;5003135;28;9125;-60
2023/05/30 10:44:17;;;;;;;;;;;;;;;29.02;36.32;94349.59;4999618;28;7769;-61
2023/05/30 10:47:21;;;;;;;;;;;;;;;28.97;36.17;94347.69;5003457;28;9317;-61
2023/05/30 10:50:37;;;;;;;;;;;;;;;28.93;36.09;94338.94;5042778;28;9441;-61
2023/05/30 10:53:14;;;;;;;;;;;;;;;28.90;35.94;94337.28;4949501;28;8897;-60
2023/05/30 10:55:45;;;;;;;;;;;;;;;28.91;35.62;94341.50;4950390;28;7134;-61
2023/05/30 10:58:39;;;;;;;;;;;;;;;28.94;36.13;94337.69;4949315;28;7238;-60
2023/05/30 11:01:27;;;;;;;;;;;;;;;28.94;35.89;94335.66;4980011;28;8353;-60
2023/05/30 11:03:58;;;;;;;;;;;;;;;28.94;35.51;94330.13;4964685;28;7985;-60
2023/05/30 11:06:38;;;;;;;;;;;;;;;28.94;35.04;94332.16;4971934;28;9002;-60
2023/05/30 11:09:32;;;;;;;;;;;;;;;28.95;35.53;94330.84;4976685;28;7047;-60
2023/05/30 11:12:02;;;;;;;;;;;;;;;28.96;34.79;94335.13;4918250;29;7112;-60
2023/05/30 11:14:32;;;;;;;;;;;;;;;28.98;34.90;94327.78;4922966;29;7222;-60
2023/05/30 11:17:09;;;;;;;;;;;;;;;28.96;34.30;94321.28;4925613;28;7289;-60
2023/05/30 11:19:44;;;;;;;;;;;;;;;28.98;35.08;94321.50;4936994;28;7025;-60
2023/05/30 11:22:15;;;;;;;;;;;;;;;28.99;35.10;94323.72;4933590;28;9166;-60
2023/05/30 11:24:45;;;;;;;;;;;;;;;28.99;34.38;94320.94;4931796;28;7048;-60
2023/05/30 11:27:14;;;;;;;;;;;;;;;28.96;34.24;94322.03;4915997;29;7269;-61
2023/05/30 11:29:56;;;;;;;;;;;;;;;28.98;34.90;94308.41;4961243;28;7179;-61
2023/05/30 11:32:28;;;;;;;;;;;;;;;28.99;34.63;94309.88;4984286;28;9106;-60
2023/05/30 11:35:00;;;;;;;;;;;;;;;28.99;35.22;94303.59;4983177;28;9406;-60
2023/05/30 11:37:29;;;;;;;;;;;;;;;28.98;35.31;94302.09;4984765;28;7279;-61
2023/05/30 11:39:55;;;;;;;;;;;;;;;29.04;35.39;94302.72;4968727;28;9478;-60
2023/05/30 11:42:22;;;;;;;;;;;;;;;29.05;35.16;94298.69;4969351;28;7297;-60
2023/05/30 11:44:48;;;;;;;;;;;;;;;29.10;35.22;94309.63;4988835;28;9416;-61
2023/05/30 11:47:18;;;;;;;;;;;;;;;29.13;34.99;94301.53;4985815;28;7278;-61
2023/05/30 11:49:47;;;;;;;;;;;;;;;29.10;35.90;94312.41;5021540;28;8270;-61
2023/05/30 11:52:45;;;;;;;;;;;;;;;29.17;35.33;94299.94;5014400;28;7303;-61
2023/05/30 11:56:08;;;;;;;;;;;;;;;29.19;36.31;94302.22;4952879;28;8949;-61
2023/05/30 11:58:50;;;;;;;;;;;;;;;29.20;35.54;94298.13;4914235;29;7270;-61
2023/05/30 12:01:27;;;;;;;;;;;;;;;29.23;36.13;94286.72;4913455;29;9032;-61
2023/05/30 12:04:06;;;;;;;;;;;;;;;29.27;35.31;94280.88;4915803;29;7436;-61
2023/05/30 12:07:02;;;;;;;;;;;;;;;29.29;35.87;94283.84;4924080;29;6995;-61
2023/05/30 12:09:41;;;;;;;;;;;;;;;29.27;35.47;94291.94;4909264;29;9066;-61
2023/05/30 12:12:08;;;;;;;;;;;;;;;29.27;36.16;94280.88;4915385;29;7214;-61
2023/05/30 12:15:11;;;;;;;;;;;;;;;29.30;35.26;94285.31;4923933;29;9056;-61
2023/05/30 12:17:46;;;;;;;;;;;;;;;29.31;36.05;94287.56;4911471;29;7361;-61
2023/05/30 12:20:21;;;;;;;;;;;;;;;29.30;35.85;94280.53;4908855;29;9201;-62
2023/05/30 12:22:49;;;;;;;;;;;;;;;29.32;36.25;94280.00;4908550;29;9077;-61
2023/05/30 12:25:27;;;;;;;;;;;;;;;29.32;36.34;94282.78;4912824;29;7274;-61
2023/05/30 12:28:26;;;;;;;;;;;;;;;29.35;35.97;94282.44;4908140;29;7218;-61
2023/05/30 12:30:54;;;;;;;;;;;;;;;29.33;36.85;94275.94;4917389;28;9095;-61
2023/05/30 12:33:22;;;;;;;;;;;;;;;29.34;36.50;94280.22;4962044;28;8726;-61
2023/05/30 12:35:53;;;;;;;;;;;;;;;29.36;36.90;94280.41;4951066;28;9045;-61
2023/05/30 12:38:21;;;;;;;;;;;;;;;29.40;36.80;94276.03;4973166;28;9422;-61
2023/05/30 12:40:51;;;;;;;;;;;;;;;29.45;36.84;94279.94;4944583;28;9421;-61
2023/05/30 12:43:26;;;;;;;;;;;;;;;29.47;36.45;94282.94;4974595;28;9062;-61
2023/05/30 12:46:08;;;;;;;;;;;;;;;29.48;36.50;94274.06;4952620;28;9160;-61
2023/05/30 12:49:11;;;;;;;;;;;;;;;29.54;36.72;94276.69;4970431;28;7055;-61
2023/05/30 12:51:43;;;;;;;;;;;;;;;29.54;36.27;94273.91;5008354;28;7410;-61
2023/05/30 12:54:25;;;;;;;;;;;;;;;29.54;36.65;94266.34;5026384;28;7890;-60
2023/05/30 12:56:57;;;;;;;;;;;;;;;29.56;36.33;94268.59;5022276;28;7719;-61
2023/05/30 13:00:10;;;;;;;;;;;;;;;29.59;36.03;94278.59;4995852;28;8467;-61
2023/05/30 13:02:42;;;;;;;;;;;;;;;29.62;36.16;94275.47;5024631;28;8476;-61
2023/05/30 13:05:23;;;;;;;;;;;;;;;29.62;36.61;94283.06;5007379;28;7334;-61
2023/05/30 13:08:00;;;;;;;;;;;;;;;29.62;36.29;94286.56;5022935;28;9063;-61
2023/05/30 13:10:45;;;;;;;;;;;;;;;29.65;36.38;94268.13;5034967;28;9196;-61
2023/05/30 13:13:16;;;;;;;;;;;;;;;29.65;36.06;94268.88;5021662;28;7072;-60
2023/05/30 13:15:42;;;;;;;;;;;;;;;29.67;36.60;94271.09;5004423;28;7030;-60
2023/05/30 13:18:10;;;;;;;;;;;;;;;29.58;36.17;94269.53;5019221;28;9040;-61
2023/05/30 13:20:42;;;;;;;;;;;;;;;29.60;36.38;94261.41;5005516;28;6977;-60
2023/05/30 13:23:17;;;;;;;;;;;;;;;29.56;35.82;94263.03;5005603;28;7054;-60
2023/05/30 13:25:45;;;;;;;;;;;;;;;29.53;35.80;94261.38;5028111;28;9158;-60
2023/05/30 13:28:18;;;;;;;;;;;;;;;29.52;36.13;94268.19;5004069;28;7321;-60
2023/05/30 13:30:51;;;;;;;;;;;;;;;29.51;35.81;94263.94;5005888;28;9123;-60
2023/05/30 13:33:37;;;;;;;;;;;;;;;29.50;36.22;94265.94;5009581;28;8021;-60
2023/05/30 13:36:12;;;;;;;;;;;;;;;29.50;35.94;94248.56;5024481;28;9283;-60
2023/05/30 13:38:56;;;;;;;;;;;;;;;29.49;35.71;94274.81;5023007;28;8409;-60
2023/05/30 13:41:46;;;;;;;;;;;;;;;29.48;36.54;94251.16;5016797;28;7042;-60
2023/05/30 13:44:12;;;;;;;;;;;;;;;29.49;36.25;94253.38;5020632;28;9115;-60
2023/05/30 13:46:40;;;;;;;;;;;;;;;29.54;35.56;94246.22;5006012;28;9074;-61
2023/05/30 13:49:08;;;;;;;;;;;;;;;29.53;36.37;94253.06;5020059;28;7139;-60
2023/05/30 13:51:36;;;;;;;;;;;;;;;29.55;36.92;94250.47;5029630;28;7457;-60
2023/05/30 13:54:06;;;;;;;;;;;;;;;29.56;36.53;94240.88;5031069;28;7317;-60